createdAt,value
2019-05-02T00:00:55.085Z,97.00
2019-05-02T00:03:27.276Z,97.00
2019-05-02T00:05:56.646Z,97.00
2019-05-02T00:08:29.204Z,97.00
2019-05-02T00:10:57.539Z,97.00
2019-05-02T00:13:27.288Z,97.00
2019-05-02T00:15:57.959Z,97.00
2019-05-02T00:18:32.087Z,97.00
2019-05-02T00:21:01.373Z,97.00
2019-05-02T00:23:29.686Z,97.00
2019-05-02T00:26:01.154Z,97.00
2019-05-02T00:28:30.565Z,97.00
2019-05-02T00:31:00.046Z,97.00
2019-05-02T00:33:34.227Z,97.00
2019-05-02T00:36:00.547Z,97.00
2019-05-02T00:38:33.409Z,97.00
2019-05-02T00:41:02.199Z,97.00
2019-05-02T00:43:34.321Z,97.00
2019-05-02T00:46:04.247Z,97.00
2019-05-02T00:48:59.682Z,97.00
2019-05-02T00:51:27.953Z,97.00
2019-05-02T00:53:57.683Z,97.00
2019-05-02T00:56:27.222Z,97.00
2019-05-02T00:58:56.752Z,97.00
2019-05-02T01:01:50.154Z,97.00
2019-05-02T01:04:27.541Z,97.00
2019-05-02T01:06:58.019Z,97.00
2019-05-02T01:09:29.858Z,97.00
2019-05-02T01:12:03.326Z,97.00
2019-05-02T01:14:33.332Z,97.00
2019-05-02T01:17:05.549Z,97.00
2019-05-02T01:19:34.926Z,97.00
2019-05-02T01:22:04.673Z,97.00
2019-05-02T01:24:39.964Z,97.00
2019-05-02T01:27:41.002Z,97.00
2019-05-02T01:30:37.169Z,97.00
2019-05-02T01:33:47.663Z,97.00
2019-05-02T01:36:22.866Z,97.00
2019-05-02T01:38:52.312Z,97.00
2019-05-02T01:41:23.934Z,97.00
2019-05-02T01:43:54.989Z,97.00
2019-05-02T01:46:27.514Z,97.00
2019-05-02T01:48:55.198Z,97.00
2019-05-02T01:51:24.557Z,97.00
2019-05-02T01:53:53.917Z,97.00
2019-05-02T01:56:23.272Z,97.00
2019-05-02T01:58:52.974Z,97.00
2019-05-02T02:01:23.535Z,97.00
2019-05-02T02:03:52.867Z,97.00
2019-05-02T02:06:22.237Z,97.00
2019-05-02T02:08:51.612Z,97.00
2019-05-02T02:11:21.061Z,97.00
2019-05-02T02:13:50.377Z,97.00
2019-05-02T02:16:19.762Z,97.00
2019-05-02T02:18:58.959Z,97.00
2019-05-02T02:21:45.121Z,97.00
2019-05-02T02:24:25.268Z,97.00
2019-05-02T02:26:53.388Z,97.00
2019-05-02T02:29:22.768Z,97.00
2019-05-02T02:31:52.095Z,97.00
2019-05-02T02:34:29.010Z,97.00
2019-05-02T02:36:52.682Z,97.00
2019-05-02T02:39:22.066Z,97.00
2019-05-02T02:41:52.513Z,97.00
2019-05-02T02:44:41.896Z,97.00
2019-05-02T02:47:19.067Z,97.00
2019-05-02T02:49:42.606Z,97.00
2019-05-02T02:52:11.845Z,97.00
2019-05-02T02:54:43.413Z,97.00
2019-05-02T02:57:21.870Z,97.00
2019-05-02T02:59:43.278Z,97.00
2019-05-02T03:02:12.731Z,97.00
2019-05-02T03:04:44.097Z,97.00
2019-05-02T03:07:24.156Z,97.00
2019-05-02T03:09:44.080Z,97.00
2019-05-02T03:12:36.221Z,97.00
2019-05-02T03:15:04.604Z,97.00
2019-05-02T03:17:33.882Z,97.00
2019-05-02T03:20:03.879Z,97.00
2019-05-02T03:22:34.776Z,97.00
2019-05-02T03:25:04.908Z,97.00
2019-05-02T03:27:37.403Z,97.00
2019-05-02T03:30:05.903Z,97.00
2019-05-02T03:32:36.525Z,97.00
2019-05-02T03:35:06.406Z,97.00
2019-05-02T03:37:35.774Z,97.00
2019-05-02T03:40:05.887Z,97.00
2019-05-02T03:42:43.720Z,97.00
2019-05-02T03:45:06.290Z,97.00
2019-05-02T03:47:36.799Z,97.00
2019-05-02T03:50:09.482Z,97.00
2019-05-02T03:52:43.631Z,97.00
2019-05-02T03:55:10.051Z,97.00
2019-05-02T03:57:42.108Z,97.00
2019-05-02T04:00:13.695Z,97.00
2019-05-02T04:02:42.005Z,97.00
2019-05-02T04:05:11.637Z,97.00
2019-05-02T04:07:42.334Z,97.00
2019-05-02T04:10:13.352Z,97.00
2019-05-02T04:12:43.976Z,97.00
2019-05-02T04:15:13.763Z,97.00
2019-05-02T04:17:43.784Z,97.00
2019-05-02T04:20:13.248Z,97.00
2019-05-02T04:22:48.580Z,97.00
2019-05-02T04:25:13.722Z,97.00
2019-05-02T04:27:44.058Z,97.00
2019-05-02T04:30:14.922Z,97.00
2019-05-02T04:32:49.673Z,97.00
2019-05-02T04:35:15.223Z,97.00
2019-05-02T04:37:44.674Z,97.00
2019-05-02T04:40:14.036Z,97.00
2019-05-02T04:42:43.393Z,97.00
2019-05-02T04:45:25.129Z,97.00
2019-05-02T04:47:54.536Z,97.00
2019-05-02T04:50:24.120Z,97.00
2019-05-02T04:52:48.411Z,97.00
2019-05-02T04:55:28.027Z,97.00
2019-05-02T04:57:50.832Z,97.00
2019-05-02T05:00:22.447Z,97.00
2019-05-02T05:02:53.180Z,97.00
2019-05-02T05:05:25.671Z,97.00
2019-05-02T05:07:53.573Z,97.00
2019-05-02T05:10:22.907Z,97.00
2019-05-02T05:12:52.166Z,97.00
2019-05-02T05:15:35.820Z,97.00
2019-05-02T05:17:52.510Z,97.00
2019-05-02T05:20:21.786Z,97.00
2019-05-02T05:22:51.137Z,97.00
2019-05-02T05:25:27.716Z,97.00
2019-05-02T05:28:00.242Z,97.00
2019-05-02T05:30:27.822Z,97.00
2019-05-02T05:32:58.316Z,97.00
2019-05-02T05:35:28.142Z,97.00
2019-05-02T05:37:57.487Z,97.00
2019-05-02T05:40:30.278Z,97.00
2019-05-02T05:43:02.125Z,97.00
2019-05-02T05:45:28.777Z,97.00
2019-05-02T05:48:01.035Z,97.00
2019-05-02T05:50:32.287Z,97.00
2019-05-02T05:53:00.295Z,97.00
2019-05-02T05:55:31.604Z,97.00
2019-05-02T05:58:11.837Z,97.00
2019-05-02T06:00:31.891Z,97.00
2019-05-02T06:03:10.847Z,97.00
2019-05-02T06:05:33.126Z,97.00
2019-05-02T06:08:02.713Z,97.00
2019-05-02T06:10:31.979Z,97.00
2019-05-02T06:13:05.149Z,97.00
2019-05-02T06:15:33.891Z,97.00
2019-05-02T06:18:04.808Z,97.00
2019-05-02T06:20:34.360Z,97.00
2019-05-02T06:23:03.721Z,97.00
2019-05-02T06:25:36.208Z,97.00
2019-05-02T06:28:05.470Z,97.00
2019-05-02T06:30:35.092Z,97.00
2019-05-02T06:33:04.418Z,97.00
2019-05-02T06:35:33.777Z,97.00
2019-05-02T06:38:03.125Z,97.00
2019-05-02T06:40:32.427Z,97.00
2019-05-02T06:43:04.445Z,97.00
2019-05-02T06:45:37.546Z,97.00
2019-05-02T06:48:03.861Z,97.00
2019-05-02T06:50:33.456Z,97.00
2019-05-02T06:53:04.414Z,97.00
2019-05-02T06:55:36.366Z,97.00
2019-05-02T06:58:08.201Z,97.00
2019-05-02T07:00:55.208Z,97.00
2019-05-02T07:03:10.135Z,97.00
2019-05-02T07:05:39.067Z,97.00
2019-05-02T07:08:11.611Z,97.00
2019-05-02T07:10:44.674Z,97.00
2019-05-02T07:13:12.097Z,97.00
2019-05-02T07:15:59.531Z,97.00
2019-05-02T07:18:31.323Z,97.00
2019-05-02T07:21:01.461Z,97.00
2019-05-02T07:23:30.794Z,97.00
2019-05-02T07:26:00.517Z,97.00
2019-05-02T07:28:29.965Z,97.00
2019-05-02T07:30:59.413Z,97.00
2019-05-02T07:33:32.397Z,97.00
2019-05-02T07:36:00.102Z,97.00
2019-05-02T07:38:29.741Z,97.00
2019-05-02T07:40:59.135Z,97.00
2019-05-02T07:43:28.437Z,97.00
2019-05-02T07:45:57.701Z,97.00
2019-05-02T07:48:27.001Z,97.00
2019-05-02T07:50:56.652Z,97.00
2019-05-02T07:53:26.387Z,97.00
2019-05-02T07:55:55.790Z,97.00
2019-05-02T07:58:25.114Z,97.00
2019-05-02T08:00:54.445Z,97.00
2019-05-02T08:03:23.819Z,97.00
2019-05-02T08:05:54.410Z,97.00
2019-05-02T08:08:25.085Z,97.00
2019-05-02T08:11:01.775Z,97.00
2019-05-02T08:13:26.209Z,97.00
2019-05-02T08:15:55.479Z,97.00
2019-05-02T08:18:30.349Z,97.00
2019-05-02T08:20:57.417Z,97.00
2019-05-02T08:23:27.907Z,97.00
2019-05-02T08:25:57.503Z,97.00
2019-05-02T08:28:41.607Z,97.00
2019-05-02T08:31:13.486Z,97.00
2019-05-02T08:33:41.943Z,97.00
2019-05-02T08:36:11.243Z,97.00
2019-05-02T08:38:40.486Z,97.00
2019-05-02T08:41:09.846Z,97.00
2019-05-02T08:43:40.127Z,97.00
2019-05-02T08:46:14.583Z,97.00
2019-05-02T08:48:43.753Z,97.00
2019-05-02T08:51:13.183Z,97.00
2019-05-02T08:53:42.483Z,97.00
2019-05-02T08:56:16.524Z,97.00
2019-05-02T08:58:44.896Z,97.00
2019-05-02T09:01:15.447Z,97.00
2019-05-02T09:04:00.274Z,97.00
2019-05-02T09:06:21.720Z,97.00
2019-05-02T09:08:51.310Z,97.00
2019-05-02T09:11:17.998Z,97.00
2019-05-02T09:13:47.319Z,97.00
2019-05-02T09:16:21.031Z,97.00
2019-05-02T09:18:51.835Z,97.00
2019-05-02T09:21:18.721Z,97.00
2019-05-02T09:23:47.991Z,97.00
2019-05-02T09:26:17.379Z,97.00
2019-05-02T09:28:51.615Z,97.00
2019-05-02T09:31:22.508Z,97.00
2019-05-02T09:33:52.100Z,97.00
2019-05-02T09:36:22.840Z,97.00
2019-05-02T09:38:55.904Z,97.00
2019-05-02T09:41:26.832Z,97.00
2019-05-02T09:43:54.250Z,97.00
2019-05-02T09:46:23.608Z,97.00
2019-05-02T09:48:56.990Z,97.00
2019-05-02T09:51:23.745Z,97.00
2019-05-02T09:53:57.020Z,97.00
2019-05-02T09:56:24.003Z,97.00
2019-05-02T09:58:56.778Z,97.00
2019-05-02T10:01:36.607Z,97.00
2019-05-02T10:04:06.643Z,97.00
2019-05-02T10:06:36.039Z,97.00
2019-05-02T10:09:08.306Z,97.00
2019-05-02T10:11:37.709Z,97.00
2019-05-02T10:14:07.125Z,97.00
2019-05-02T10:16:36.529Z,97.00
2019-05-02T10:19:10.723Z,97.00
2019-05-02T10:21:36.908Z,97.00
2019-05-02T10:24:06.281Z,97.00
2019-05-02T10:26:37.426Z,97.00
2019-05-02T10:29:06.782Z,97.00
2019-05-02T10:31:37.862Z,97.00
2019-05-02T10:34:08.394Z,97.00
2019-05-02T10:36:38.270Z,97.00
2019-05-02T10:39:08.505Z,97.00
2019-05-02T10:41:39.599Z,97.00
2019-05-02T10:44:09.037Z,97.00
2019-05-02T10:47:03.504Z,97.00
2019-05-02T10:49:39.268Z,97.00
2019-05-02T10:52:08.674Z,97.00
2019-05-02T10:54:38.078Z,97.00
2019-05-02T10:57:07.605Z,97.00
2019-05-02T10:59:36.963Z,97.00
2019-05-02T11:02:35.618Z,97.00
2019-05-02T11:05:12.150Z,97.00
2019-05-02T11:07:42.012Z,97.00
2019-05-02T11:10:14.515Z,97.00
2019-05-02T11:12:56.655Z,97.00
2019-05-02T11:15:48.074Z,97.00
2019-05-02T11:18:22.144Z,97.00
2019-05-02T11:20:52.574Z,97.00
2019-05-02T11:23:22.195Z,97.00
2019-05-02T11:25:52.613Z,97.00
2019-05-02T11:28:22.351Z,97.00
2019-05-02T11:30:52.526Z,97.00
2019-05-02T11:33:22.988Z,97.00
2019-05-02T11:35:53.570Z,97.00
2019-05-02T11:38:52.722Z,97.00
2019-05-02T11:40:54.334Z,97.00
2019-05-02T11:43:23.716Z,97.00
2019-05-02T11:45:54.190Z,97.00
2019-05-02T11:48:24.159Z,96.30
2019-05-02T11:50:53.668Z,95.70
2019-05-02T11:53:28.982Z,96.10
2019-05-02T11:55:58.382Z,95.90
2019-05-02T11:58:24.953Z,97.00
2019-05-02T12:00:54.225Z,96.30
2019-05-02T12:03:35.502Z,96.60
2019-05-02T12:06:06.753Z,97.00
2019-05-02T12:08:34.128Z,96.90
2019-05-02T12:11:03.949Z,95.70
2019-05-02T12:13:33.407Z,95.00
2019-05-02T12:16:03.789Z,95.40
2019-05-02T12:18:33.556Z,94.90
2019-05-02T12:21:02.996Z,95.10
2019-05-02T12:23:32.341Z,95.60
2019-05-02T12:26:02.815Z,95.10
2019-05-02T12:28:32.473Z,95.60
2019-05-02T12:31:02.739Z,96.30
2019-05-02T12:33:36.496Z,97.00
2019-05-02T12:36:08.557Z,95.80
2019-05-02T12:38:38.121Z,95.10
2019-05-02T12:41:19.517Z,96.20
2019-05-02T12:43:38.459Z,97.00
2019-05-02T12:46:07.721Z,97.00
2019-05-02T12:48:37.121Z,97.00
2019-05-02T12:51:06.502Z,97.00
2019-05-02T12:53:36.031Z,97.00
2019-05-02T12:56:05.622Z,97.00
2019-05-02T12:58:34.989Z,97.00
2019-05-02T13:01:04.377Z,96.80
2019-05-02T13:03:47.449Z,96.50
2019-05-02T13:06:16.846Z,97.00
2019-05-02T13:08:49.020Z,97.00
2019-05-02T13:11:32.165Z,97.00
2019-05-02T13:14:02.171Z,97.00
2019-05-02T13:16:33.505Z,97.00
2019-05-02T13:19:06.079Z,97.00
2019-05-02T13:21:42.465Z,97.00
2019-05-02T13:24:18.986Z,97.00
2019-05-02T13:26:51.950Z,97.00
2019-05-02T13:29:19.370Z,97.00
2019-05-02T13:31:57.800Z,97.00
2019-05-02T13:34:48.581Z,97.00
2019-05-02T13:37:19.339Z,97.00
2019-05-02T13:39:56.150Z,97.00
2019-05-02T13:42:25.530Z,97.00
2019-05-02T13:45:02.346Z,97.00
2019-05-02T13:47:32.503Z,97.00
2019-05-02T13:50:03.926Z,97.00
2019-05-02T13:52:33.265Z,97.00
2019-05-02T13:55:02.960Z,97.00
2019-05-02T13:57:34.959Z,97.00
2019-05-02T14:00:03.514Z,97.00
2019-05-02T14:02:42.658Z,97.00
2019-05-02T14:05:13.769Z,97.00
2019-05-02T14:07:48.167Z,97.00
2019-05-02T14:10:25.763Z,97.00
2019-05-02T14:12:59.069Z,97.00
2019-05-02T14:15:33.122Z,97.00
2019-05-02T14:18:02.634Z,97.00
2019-05-02T14:20:33.044Z,97.00
2019-05-02T14:23:02.607Z,97.00
2019-05-02T14:25:32.285Z,97.00
2019-05-02T14:28:02.892Z,97.00
2019-05-02T14:30:39.515Z,97.00
2019-05-02T14:33:07.943Z,97.00
2019-05-02T14:35:38.013Z,97.00
2019-05-02T14:38:13.094Z,97.00
2019-05-02T14:41:09.645Z,97.00
2019-05-02T14:43:54.006Z,97.00
2019-05-02T14:46:28.723Z,97.00
2019-05-02T14:48:56.753Z,97.00
2019-05-02T14:51:27.982Z,97.00
2019-05-02T14:54:01.918Z,97.00
2019-05-02T14:56:43.363Z,97.00
2019-05-02T14:59:15.339Z,97.00
2019-05-02T15:01:46.725Z,97.00
2019-05-02T15:04:14.769Z,97.00
2019-05-02T15:06:47.393Z,97.00
2019-05-02T15:09:16.652Z,97.00
2019-05-02T15:11:58.508Z,97.00
2019-05-02T15:14:33.091Z,97.00
2019-05-02T15:17:02.933Z,97.00
2019-05-02T15:19:33.101Z,97.00
2019-05-02T15:22:02.681Z,97.00
2019-05-02T15:24:37.472Z,97.00
2019-05-02T15:27:12.094Z,97.00
2019-05-02T15:29:35.721Z,97.00
2019-05-02T15:32:40.337Z,97.00
2019-05-02T15:35:38.428Z,97.00
2019-05-02T15:38:07.830Z,97.00
2019-05-02T15:40:46.990Z,97.00
2019-05-02T15:43:09.687Z,97.00
2019-05-02T15:45:43.442Z,97.00
2019-05-02T15:48:16.016Z,97.00
2019-05-02T15:50:50.085Z,97.00
2019-05-02T15:53:22.336Z,97.00
2019-05-02T15:55:52.648Z,97.00
2019-05-02T15:58:26.134Z,97.00
2019-05-02T16:01:16.592Z,97.00
2019-05-02T16:03:47.702Z,97.00
2019-05-02T16:06:23.694Z,97.00
2019-05-02T16:08:48.020Z,97.00
2019-05-02T16:11:18.064Z,97.00
2019-05-02T16:13:52.498Z,97.00
2019-05-02T16:16:21.905Z,97.00
2019-05-02T16:18:52.544Z,97.00
2019-05-02T16:21:34.416Z,97.00
2019-05-02T16:24:23.489Z,97.00
2019-05-02T16:26:56.644Z,97.00
2019-05-02T16:29:28.325Z,97.00
2019-05-02T16:32:13.366Z,97.00
2019-05-02T16:34:56.886Z,97.00
2019-05-02T16:37:29.506Z,97.00
2019-05-02T16:39:58.937Z,97.00
2019-05-02T16:42:28.390Z,97.00
2019-05-02T16:44:57.812Z,97.00
2019-05-02T16:47:27.465Z,97.00
2019-05-02T16:49:56.789Z,97.00
2019-05-02T16:52:26.114Z,97.00
2019-05-02T16:54:55.392Z,97.00
2019-05-02T16:57:24.797Z,97.00
2019-05-02T17:00:01.464Z,97.00
2019-05-02T17:02:25.195Z,97.00
2019-05-02T17:04:54.778Z,97.00
2019-05-02T17:07:34.917Z,97.00
2019-05-02T17:10:18.987Z,97.00
2019-05-02T17:12:52.917Z,97.00
2019-05-02T17:15:35.353Z,97.00
2019-05-02T17:18:12.731Z,97.00
2019-05-02T17:20:39.773Z,97.00
2019-05-02T17:23:09.131Z,97.00
2019-05-02T17:25:38.526Z,97.00
2019-05-02T17:28:10.515Z,97.00
2019-05-02T17:30:40.656Z,97.00
2019-05-02T17:33:14.470Z,97.00
2019-05-02T17:35:49.193Z,97.00
2019-05-02T17:38:12.373Z,97.00
2019-05-02T17:40:42.227Z,97.00
2019-05-02T17:43:11.863Z,97.00
2019-05-02T17:45:41.083Z,97.00
2019-05-02T17:48:16.397Z,97.00
2019-05-02T17:51:06.245Z,97.00
2019-05-02T17:53:41.479Z,97.00
2019-05-02T17:56:06.733Z,97.00
2019-05-02T17:58:36.038Z,97.00
2019-05-02T18:01:08.260Z,97.00
2019-05-02T18:03:37.658Z,97.00
2019-05-02T18:06:07.483Z,97.00
2019-05-02T18:08:38.009Z,97.00
2019-05-02T18:11:07.302Z,97.00
2019-05-02T18:13:36.727Z,97.00
2019-05-02T18:16:07.601Z,97.00
2019-05-02T18:18:42.142Z,97.00
2019-05-02T18:21:08.361Z,97.00
2019-05-02T18:23:37.771Z,97.00
2019-05-02T18:26:07.166Z,97.00
2019-05-02T18:28:46.156Z,97.00
2019-05-02T18:31:07.511Z,97.00
2019-05-02T18:33:41.153Z,97.00
2019-05-02T18:36:10.025Z,97.00
2019-05-02T18:38:41.817Z,97.00
2019-05-02T18:41:12.042Z,97.00
2019-05-02T18:43:45.147Z,97.00
2019-05-02T18:46:12.830Z,97.00
2019-05-02T18:48:46.808Z,97.00
2019-05-02T18:51:17.267Z,97.00
2019-05-02T18:53:44.767Z,97.00
2019-05-02T18:56:14.290Z,97.00
2019-05-02T18:58:45.128Z,97.00
2019-05-02T19:01:17.811Z,97.00
2019-05-02T19:03:47.103Z,97.00
2019-05-02T19:06:16.639Z,97.00
2019-05-02T19:08:49.738Z,97.00
2019-05-02T19:11:19.215Z,97.00
2019-05-02T19:13:48.543Z,97.00
2019-05-02T19:16:19.328Z,97.00
2019-05-02T19:18:53.244Z,97.00
2019-05-02T19:21:21.700Z,97.00
2019-05-02T19:23:51.797Z,97.00
2019-05-02T19:26:22.127Z,97.00
2019-05-02T19:29:08.419Z,97.00
2019-05-02T19:31:56.935Z,97.00
2019-05-02T19:34:26.967Z,97.00
2019-05-02T19:36:58.157Z,97.00
2019-05-02T19:39:32.096Z,97.00
2019-05-02T19:42:01.783Z,97.00
2019-05-02T19:44:33.602Z,97.00
2019-05-02T19:47:02.579Z,97.00
2019-05-02T19:49:32.852Z,97.00
2019-05-02T19:52:02.460Z,97.00
2019-05-02T19:54:39.404Z,97.00
2019-05-02T19:57:08.882Z,97.00
2019-05-02T19:59:38.247Z,97.00
2019-05-02T20:02:07.685Z,97.00
2019-05-02T20:04:37.569Z,97.00
2019-05-02T20:07:08.251Z,97.00
2019-05-02T20:09:38.221Z,97.00
2019-05-02T20:12:11.662Z,97.00
2019-05-02T20:14:43.686Z,97.00
2019-05-02T20:17:15.059Z,97.00
2019-05-02T20:19:45.901Z,97.00
2019-05-02T20:22:17.522Z,97.00
2019-05-02T20:24:55.265Z,97.00
2019-05-02T20:27:23.014Z,97.00
2019-05-02T20:29:52.336Z,97.00
2019-05-02T20:32:22.132Z,97.00
2019-05-02T20:34:51.623Z,97.00
2019-05-02T20:37:22.102Z,97.00
2019-05-02T20:39:51.673Z,97.00
2019-05-02T20:42:20.993Z,97.00
2019-05-02T20:44:50.403Z,97.00
2019-05-02T20:47:24.215Z,97.00
2019-05-02T20:49:53.921Z,97.00
2019-05-02T20:52:23.391Z,97.00
2019-05-02T20:54:52.704Z,97.00
2019-05-02T20:57:22.162Z,97.00
2019-05-02T20:59:52.489Z,97.00
2019-05-02T21:02:22.312Z,97.00
2019-05-02T21:04:58.748Z,97.00
2019-05-02T21:07:42.661Z,97.00
2019-05-02T21:10:19.070Z,97.00
2019-05-02T21:12:48.614Z,97.00
2019-05-02T21:15:18.327Z,97.00
2019-05-02T21:17:47.775Z,97.00
2019-05-02T21:20:17.204Z,97.00
2019-05-02T21:22:46.700Z,97.00
2019-05-02T21:25:16.400Z,97.00
2019-05-02T21:27:45.701Z,97.00
2019-05-02T21:30:17.145Z,97.00
2019-05-02T21:32:46.732Z,97.00
2019-05-02T21:35:16.160Z,97.00
2019-05-02T21:37:45.607Z,97.00
2019-05-02T21:40:15.165Z,97.00
2019-05-02T21:42:44.502Z,97.00
2019-05-02T21:45:14.093Z,97.00
2019-05-02T21:47:43.411Z,97.00
2019-05-02T21:50:50.718Z,97.00
2019-05-02T21:53:25.447Z,97.00
2019-05-02T21:56:05.707Z,97.00
2019-05-02T21:58:35.106Z,97.00
2019-05-02T22:01:12.770Z,97.00
2019-05-02T22:03:42.050Z,97.00
2019-05-02T22:06:12.250Z,97.00
2019-05-02T22:08:41.902Z,97.00
2019-05-02T22:11:12.250Z,97.00
2019-05-02T22:13:42.278Z,97.00
2019-05-02T22:16:12.919Z,97.00
2019-05-02T22:18:42.832Z,97.00
2019-05-02T22:21:12.339Z,97.00
2019-05-02T22:23:42.582Z,97.00
2019-05-02T22:26:12.775Z,97.00
2019-05-02T22:29:09.939Z,97.00
2019-05-02T22:31:39.635Z,97.00
2019-05-02T22:34:09.023Z,97.00
2019-05-02T22:36:38.421Z,97.00
2019-05-02T22:39:33.886Z,97.00
2019-05-02T22:42:04.716Z,97.00
2019-05-02T22:44:34.226Z,97.00
2019-05-02T22:47:03.619Z,97.00
2019-05-02T22:49:32.994Z,97.00
2019-05-02T22:52:02.608Z,97.00
2019-05-02T22:54:33.880Z,97.00
2019-05-02T22:57:02.939Z,97.00
2019-05-02T22:59:32.311Z,97.00
2019-05-02T23:02:02.137Z,97.00
2019-05-02T23:04:32.561Z,97.00
2019-05-02T23:07:02.471Z,97.00
2019-05-02T23:09:31.901Z,97.00
2019-05-02T23:12:02.845Z,97.00
2019-05-02T23:14:32.669Z,97.00
2019-05-02T23:17:02.227Z,97.00
2019-05-02T23:19:31.895Z,97.00
2019-05-02T23:22:02.068Z,97.00
2019-05-02T23:24:53.630Z,97.00
2019-05-02T23:27:42.396Z,97.00
2019-05-02T23:30:14.307Z,97.00
2019-05-02T23:32:43.688Z,97.00
2019-05-02T23:35:13.361Z,97.00
2019-05-02T23:37:42.908Z,97.00
2019-05-02T23:40:12.602Z,97.00
2019-05-02T23:42:41.957Z,97.00
2019-05-02T23:45:12.111Z,97.00
2019-05-02T23:47:42.231Z,97.00
2019-05-02T23:50:12.138Z,97.00
2019-05-02T23:52:41.575Z,97.00
2019-05-02T23:55:12.203Z,97.00
2019-05-02T23:57:42.171Z,97.00
